createdAt,value
2022-09-22T00:01:58.801Z,3.50
2022-09-22T00:04:26.190Z,3.03
2022-09-22T00:06:53.359Z,2.70
2022-09-22T00:09:22.174Z,2.60
2022-09-22T00:11:52.698Z,2.53
2022-09-22T00:14:21.031Z,2.87
2022-09-22T00:16:49.306Z,2.93
2022-09-22T00:19:18.527Z,2.47
2022-09-22T00:21:45.996Z,3.23
2022-09-22T00:24:42.402Z,3.10
2022-09-22T00:27:14.875Z,2.87
2022-09-22T00:29:42.206Z,2.90
2022-09-22T00:32:09.470Z,2.40
2022-09-22T00:34:36.811Z,2.73
2022-09-22T00:37:04.062Z,2.80
2022-09-22T00:39:32.818Z,3.20
2022-09-22T00:42:06.295Z,3.20
2022-09-22T00:44:38.364Z,3.07
2022-09-22T00:47:13.999Z,2.70
2022-09-22T00:49:44.514Z,2.83
2022-09-22T00:52:22.753Z,3.00
2022-09-22T00:54:54.128Z,3.50
2022-09-22T00:57:23.257Z,3.17
2022-09-22T00:59:51.678Z,3.10
2022-09-22T01:02:19.104Z,3.23
2022-09-22T01:04:46.602Z,2.93
2022-09-22T01:07:13.843Z,3.20
2022-09-22T01:09:41.022Z,3.47
2022-09-22T01:12:19.599Z,2.63
2022-09-22T01:14:57.493Z,3.10
2022-09-22T01:17:28.414Z,3.10
2022-09-22T01:20:10.430Z,3.63
2022-09-22T01:22:59.255Z,3.43
2022-09-22T01:25:49.282Z,2.83
2022-09-22T01:28:30.322Z,3.13
2022-09-22T01:31:02.066Z,2.53
2022-09-22T01:33:34.991Z,3.10
2022-09-22T01:36:09.314Z,3.10
2022-09-22T01:38:40.799Z,3.10
2022-09-22T01:43:47.108Z,2.77
2022-09-22T01:46:18.924Z,2.60
2022-09-22T01:48:47.693Z,2.87
2022-09-22T01:51:31.457Z,2.93
2022-09-22T01:54:20.673Z,2.97
2022-09-22T01:57:06.310Z,2.87
2022-09-22T01:59:34.618Z,3.10
2022-09-22T02:02:04.212Z,3.40
2022-09-22T02:04:34.163Z,2.73
2022-09-22T02:07:03.100Z,3.03
2022-09-22T02:09:31.893Z,3.30
2022-09-22T02:11:59.553Z,3.23
2022-09-22T02:14:26.910Z,2.90
2022-09-22T02:16:54.561Z,2.80
2022-09-22T02:19:24.840Z,3.17
2022-09-22T02:21:52.403Z,3.57
2022-09-22T02:24:26.958Z,3.30
2022-09-22T02:27:14.126Z,2.83
2022-09-22T02:30:01.894Z,2.70
2022-09-22T02:32:29.955Z,2.90
2022-09-22T02:34:58.655Z,2.80
2022-09-22T02:37:30.975Z,2.97
2022-09-22T02:40:03.075Z,3.33
2022-09-22T02:42:31.760Z,2.53
2022-09-22T02:45:07.899Z,2.93
2022-09-22T02:47:37.693Z,3.33
2022-09-22T02:50:08.714Z,2.70
2022-09-22T02:52:36.625Z,3.27
2022-09-22T02:55:16.127Z,3.10
2022-09-22T02:57:46.506Z,2.97
2022-09-22T03:00:25.985Z,2.83
2022-09-22T03:02:53.198Z,2.60
2022-09-22T03:05:21.727Z,2.80
2022-09-22T03:07:48.913Z,2.93
2022-09-22T03:10:16.179Z,2.70
2022-09-22T03:13:02.451Z,3.07
2022-09-22T03:15:31.011Z,3.00
2022-09-22T03:17:58.315Z,3.10
2022-09-22T03:20:27.087Z,2.70
2022-09-22T03:22:54.510Z,2.83
2022-09-22T03:25:23.030Z,3.30
2022-09-22T03:28:08.724Z,3.10
2022-09-22T03:30:48.424Z,2.93
2022-09-22T03:33:15.822Z,3.10
2022-09-22T03:35:44.576Z,2.43
2022-09-22T03:38:11.894Z,2.50
2022-09-22T03:40:39.220Z,2.30
2022-09-22T03:43:06.463Z,3.33
2022-09-22T03:45:33.799Z,2.50
2022-09-22T03:48:01.154Z,2.97
2022-09-22T03:50:28.372Z,3.00
2022-09-22T03:52:57.649Z,3.20
2022-09-22T03:55:24.950Z,3.20
2022-09-22T03:57:52.242Z,3.30
2022-09-22T04:00:22.599Z,3.30
2022-09-22T04:06:01.775Z,3.30
2022-09-22T04:08:30.399Z,3.20
2022-09-22T04:10:57.628Z,3.43
2022-09-22T04:13:25.064Z,2.90
2022-09-22T04:15:52.345Z,3.07
2022-09-22T04:18:19.515Z,3.03
2022-09-22T04:20:51.690Z,3.40
2022-09-22T04:23:18.966Z,3.80
2022-09-22T04:25:47.503Z,3.03
2022-09-22T04:28:14.739Z,3.33
2022-09-22T04:30:54.980Z,3.23
2022-09-22T04:33:35.873Z,3.50
2022-09-22T04:36:03.123Z,3.73
2022-09-22T04:38:30.305Z,3.27
2022-09-22T04:40:58.899Z,3.57
2022-09-22T04:43:26.147Z,3.17
2022-09-22T04:45:53.638Z,3.43
2022-09-22T04:48:20.846Z,3.63
2022-09-22T04:50:53.500Z,3.70
2022-09-22T04:53:20.707Z,3.27
2022-09-22T04:55:49.530Z,3.47
2022-09-22T04:58:18.142Z,4.03
2022-09-22T05:01:02.250Z,3.80
2022-09-22T05:03:41.741Z,3.53
2022-09-22T05:06:09.041Z,3.47
2022-09-22T05:08:36.229Z,3.40
2022-09-22T05:11:03.415Z,4.10
2022-09-22T05:13:32.022Z,4.63
2022-09-22T05:15:59.175Z,3.63
2022-09-22T05:21:17.818Z,3.70
2022-09-22T05:23:45.062Z,3.60
2022-09-22T05:26:12.464Z,4.00
2022-09-22T05:28:41.236Z,4.30
2022-09-22T05:31:11.698Z,4.27
2022-09-22T05:33:40.579Z,4.17
2022-09-22T05:36:08.111Z,4.57
2022-09-22T05:38:35.378Z,4.73
2022-09-22T05:41:02.602Z,4.50
2022-09-22T05:43:30.254Z,3.67
2022-09-22T05:45:58.878Z,5.57
2022-09-22T05:48:30.903Z,5.73
2022-09-22T05:50:58.611Z,5.40
2022-09-22T05:53:25.861Z,5.17
2022-09-22T05:55:53.106Z,5.00
2022-09-22T05:58:20.505Z,4.67
2022-09-22T06:00:47.843Z,4.93
2022-09-22T06:03:16.537Z,4.90
2022-09-22T06:05:44.762Z,5.83
2022-09-22T06:08:12.243Z,5.00
2022-09-22T06:10:39.614Z,5.60
2022-09-22T06:13:07.792Z,5.33
2022-09-22T06:15:35.593Z,5.43
2022-09-22T06:18:03.370Z,5.00
2022-09-22T06:20:31.980Z,1.77
2022-09-22T06:22:59.343Z,5.43
2022-09-22T06:25:26.619Z,5.03
2022-09-22T06:28:00.284Z,5.03
2022-09-22T06:30:27.574Z,4.90
2022-09-22T06:32:54.996Z,5.70
2022-09-22T06:35:22.220Z,5.43
2022-09-22T06:37:55.770Z,6.17
2022-09-22T06:40:23.443Z,5.20
2022-09-22T06:42:50.800Z,5.40
2022-09-22T06:45:17.959Z,6.40
2022-09-22T06:47:45.223Z,5.60
2022-09-22T06:50:12.443Z,4.97
2022-09-22T06:52:39.645Z,5.10
2022-09-22T06:55:08.616Z,5.77
2022-09-22T06:57:35.804Z,6.60
2022-09-22T07:00:03.143Z,6.07
2022-09-22T07:02:30.348Z,7.60
2022-09-22T07:04:57.718Z,8.17
2022-09-22T07:07:24.914Z,6.50
2022-09-22T07:09:52.224Z,6.40
2022-09-22T07:12:20.834Z,7.07
2022-09-22T07:14:48.088Z,9.67
2022-09-22T07:17:15.323Z,7.67
2022-09-22T07:19:42.511Z,7.47
2022-09-22T07:22:09.763Z,7.33
2022-09-22T07:24:36.956Z,7.83
2022-09-22T07:27:04.408Z,7.77
2022-09-22T07:29:33.075Z,7.57
2022-09-22T07:32:00.425Z,8.37
2022-09-22T07:34:32.992Z,7.53
2022-09-22T07:37:00.220Z,7.77
2022-09-22T07:39:27.416Z,8.67
2022-09-22T07:41:54.676Z,7.67
2022-09-22T07:48:16.073Z,5.80
2022-09-22T07:50:44.749Z,7.47
2022-09-22T07:53:11.970Z,7.53
2022-09-22T07:55:39.202Z,7.90
2022-09-22T07:58:06.468Z,7.70
2022-09-22T08:00:33.725Z,8.30
2022-09-22T08:03:01.100Z,7.30
2022-09-22T08:05:28.916Z,6.77
2022-09-22T08:07:57.431Z,7.13
2022-09-22T08:10:24.804Z,7.03
2022-09-22T08:12:52.292Z,6.73
2022-09-22T08:15:22.314Z,6.07
2022-09-22T08:20:45.077Z,6.40
2022-09-22T08:23:13.919Z,7.70
2022-09-22T08:25:41.147Z,7.90
2022-09-22T08:28:08.483Z,5.80
2022-09-22T08:30:35.790Z,7.80
2022-09-22T08:33:05.981Z,6.53
2022-09-22T08:39:18.790Z,5.33
2022-09-22T08:41:50.142Z,4.63
2022-09-22T08:44:19.977Z,4.80
2022-09-22T08:46:48.022Z,5.67
2022-09-22T08:49:18.988Z,4.70
2022-09-22T08:51:50.296Z,7.20
2022-09-22T08:54:19.101Z,5.47
2022-09-22T08:56:49.859Z,5.60
2022-09-22T08:59:19.070Z,5.33
2022-09-22T09:01:53.110Z,5.70
2022-09-22T09:08:15.515Z,7.27
2022-09-22T09:10:50.054Z,4.00
2022-09-22T09:13:24.757Z,5.43
2022-09-22T09:16:04.368Z,7.07
2022-09-22T09:18:33.404Z,5.43
2022-09-22T09:21:03.094Z,6.20
2022-09-22T09:26:21.139Z,5.33
2022-09-22T09:28:49.826Z,4.10
2022-09-22T09:31:19.657Z,4.53
2022-09-22T09:33:53.045Z,5.23
2022-09-22T09:36:22.061Z,4.87
2022-09-22T09:38:51.134Z,5.30
2022-09-22T09:41:20.178Z,4.60
2022-09-22T09:43:52.902Z,4.47
2022-09-22T09:46:26.856Z,5.03
2022-09-22T09:49:04.839Z,3.83
2022-09-22T10:01:26.816Z,3.37
2022-09-22T10:03:54.378Z,5.00
2022-09-22T10:06:23.575Z,3.27
2022-09-22T10:08:50.974Z,3.10
2022-09-22T10:11:28.414Z,3.83
2022-09-22T10:13:56.652Z,4.33
2022-09-22T10:16:24.356Z,3.47
2022-09-22T10:19:02.807Z,2.67
2022-09-22T10:21:30.031Z,3.77
2022-09-22T10:23:57.948Z,3.27
2022-09-22T10:26:26.041Z,3.27
2022-09-22T10:29:13.784Z,3.93
2022-09-22T10:31:41.444Z,3.27
2022-09-22T10:34:26.754Z,2.40
2022-09-22T10:36:54.287Z,2.50
2022-09-22T10:39:24.407Z,2.97
2022-09-22T10:41:51.758Z,2.00
2022-09-22T10:44:38.089Z,2.57
2022-09-22T10:47:27.398Z,2.47
2022-09-22T10:50:06.221Z,3.00
2022-09-22T10:52:35.350Z,3.10
2022-09-22T10:55:07.232Z,2.53
2022-09-22T11:01:05.034Z,2.83
2022-09-22T11:03:50.068Z,2.93
2022-09-22T11:06:25.762Z,4.03
2022-09-22T11:09:00.111Z,4.20
2022-09-22T11:11:28.075Z,3.73
2022-09-22T11:14:00.849Z,2.10
2022-09-22T11:19:25.215Z,3.40
2022-09-22T11:22:04.264Z,3.90
2022-09-22T11:24:36.802Z,2.57
2022-09-22T11:30:57.625Z,3.60
2022-09-22T11:33:38.803Z,3.30
2022-09-22T11:36:10.688Z,3.50
2022-09-22T11:38:52.349Z,3.50
2022-09-22T11:41:34.456Z,2.27
2022-09-22T11:44:11.697Z,1.83
2022-09-22T11:46:51.845Z,2.10
2022-09-22T11:49:23.084Z,1.57
2022-09-22T11:51:59.305Z,1.63
2022-09-22T11:54:35.006Z,1.70
2022-09-22T12:00:52.213Z,1.60
2022-09-22T12:03:21.886Z,2.00
2022-09-22T12:05:50.563Z,1.80
2022-09-22T12:08:18.991Z,1.70
2022-09-22T12:10:47.923Z,1.90
2022-09-22T12:13:16.879Z,1.60
2022-09-22T12:15:46.893Z,1.60
2022-09-22T12:18:15.623Z,1.67
2022-09-22T12:20:49.070Z,2.20
2022-09-22T12:23:34.269Z,2.40
2022-09-22T12:26:04.387Z,2.07
2022-09-22T12:28:32.330Z,1.93
2022-09-22T12:31:18.448Z,2.10
2022-09-22T12:36:40.693Z,2.07
2022-09-22T12:39:09.342Z,1.67
2022-09-22T12:41:45.111Z,2.43
2022-09-22T12:44:14.278Z,2.10
2022-09-22T12:46:42.755Z,1.70
2022-09-22T12:49:10.347Z,2.30
2022-09-22T12:51:37.574Z,2.23
2022-09-22T12:54:23.499Z,1.93
2022-09-22T12:56:56.282Z,2.80
2022-09-22T12:59:42.486Z,2.70
2022-09-22T13:02:27.690Z,2.13
2022-09-22T13:08:26.693Z,4.07
2022-09-22T13:11:16.730Z,2.73
2022-09-22T13:13:46.090Z,2.90
2022-09-22T13:16:33.255Z,3.47
2022-09-22T13:19:01.091Z,4.20
2022-09-22T13:21:29.374Z,3.37
2022-09-22T13:24:18.284Z,4.43
2022-09-22T13:26:45.539Z,2.17
2022-09-22T13:29:15.083Z,2.17
2022-09-22T13:31:43.906Z,2.37
2022-09-22T13:34:38.863Z,2.23
2022-09-22T13:40:49.370Z,2.47
2022-09-22T13:43:27.495Z,1.70
2022-09-22T13:45:57.199Z,2.10
2022-09-22T13:48:24.593Z,1.40
2022-09-22T13:50:54.576Z,1.83
2022-09-22T13:53:22.203Z,1.30
2022-09-22T13:55:55.009Z,3.07
2022-09-22T13:58:24.015Z,1.40
2022-09-22T14:01:13.505Z,1.47
2022-09-22T14:04:18.551Z,1.70
2022-09-22T14:10:24.694Z,1.70
2022-09-22T14:12:51.922Z,1.37
2022-09-22T14:15:49.387Z,1.17
2022-09-22T14:18:18.535Z,1.27
2022-09-22T14:20:46.099Z,1.50
2022-09-22T14:26:02.065Z,1.60
2022-09-22T14:28:30.157Z,1.63
2022-09-22T14:30:57.554Z,1.50
2022-09-22T14:33:34.283Z,1.53
2022-09-22T14:36:20.773Z,1.37
2022-09-22T14:39:08.686Z,1.83
2022-09-22T14:41:38.644Z,1.37
2022-09-22T14:44:25.214Z,1.83
2022-09-22T14:46:55.515Z,1.57
2022-09-22T14:49:40.121Z,2.20
2022-09-22T14:52:11.187Z,1.80
2022-09-22T14:54:38.643Z,2.10
2022-09-22T14:57:08.238Z,1.87
2022-09-22T14:59:37.058Z,2.23
2022-09-22T15:02:04.485Z,2.30
2022-09-22T15:05:05.522Z,1.83
2022-09-22T15:07:48.871Z,2.27
2022-09-22T15:10:21.274Z,3.20
2022-09-22T15:12:50.024Z,3.40
2022-09-22T15:15:19.267Z,2.83
2022-09-22T15:17:47.395Z,2.60
2022-09-22T15:20:14.665Z,2.90
2022-09-22T15:25:16.818Z,2.70
2022-09-22T15:27:44.119Z,3.30
2022-09-22T15:30:16.343Z,2.40
2022-09-22T15:32:45.294Z,2.60
2022-09-22T15:35:12.965Z,2.60
2022-09-22T15:37:50.160Z,3.07
2022-09-22T15:40:47.778Z,2.73
2022-09-22T15:43:16.099Z,2.60
2022-09-22T15:45:44.761Z,3.10
2022-09-22T15:48:12.097Z,2.77
2022-09-22T15:50:39.679Z,2.30
2022-09-22T15:53:06.896Z,2.50
2022-09-22T15:55:34.166Z,2.23
2022-09-22T15:58:01.375Z,2.30
2022-09-22T16:00:28.560Z,2.73
2022-09-22T16:02:57.137Z,2.53
2022-09-22T16:05:32.455Z,2.57
2022-09-22T16:07:59.682Z,2.27
2022-09-22T16:10:26.884Z,2.23
2022-09-22T16:12:54.082Z,2.03
2022-09-22T16:15:21.279Z,2.23
2022-09-22T16:17:48.551Z,2.07
2022-09-22T16:20:17.543Z,2.00
2022-09-22T16:22:44.722Z,2.07
2022-09-22T16:25:12.351Z,1.90
2022-09-22T16:27:39.583Z,1.90
2022-09-22T16:30:08.694Z,2.27
2022-09-22T16:32:35.942Z,2.33
2022-09-22T16:35:03.187Z,2.63
2022-09-22T16:37:31.732Z,1.97
2022-09-22T16:39:58.958Z,2.30
2022-09-22T16:42:41.259Z,2.60
2022-09-22T16:45:33.049Z,2.40
2022-09-22T16:48:06.257Z,2.60
2022-09-22T16:50:34.048Z,3.10
2022-09-22T16:53:02.579Z,2.30
2022-09-22T16:55:29.778Z,2.43
2022-09-22T16:57:56.981Z,2.40
2022-09-22T17:00:24.272Z,3.10
2022-09-22T17:02:51.746Z,2.57
2022-09-22T17:05:18.947Z,2.80
2022-09-22T17:07:46.144Z,2.80
2022-09-22T17:10:14.842Z,2.60
2022-09-22T17:12:42.030Z,2.87
2022-09-22T17:15:09.525Z,3.47
2022-09-22T17:17:36.728Z,2.93
2022-09-22T17:20:04.371Z,2.73
2022-09-22T17:22:31.615Z,2.47
2022-09-22T17:24:58.884Z,3.53
2022-09-22T17:27:27.443Z,3.17
2022-09-22T17:29:54.679Z,2.77
2022-09-22T17:32:21.873Z,2.77
2022-09-22T17:34:49.429Z,2.90
2022-09-22T17:37:16.598Z,3.10
2022-09-22T17:39:43.801Z,2.90
2022-09-22T17:42:11.019Z,3.07
2022-09-22T17:44:39.622Z,2.40
2022-09-22T17:47:06.944Z,3.10
2022-09-22T17:49:36.093Z,3.90
2022-09-22T17:52:03.446Z,2.70
2022-09-22T17:54:31.727Z,2.80
2022-09-22T17:56:58.951Z,2.87
2022-09-22T17:59:29.072Z,2.70
2022-09-22T18:04:33.696Z,3.20
2022-09-22T18:07:00.927Z,3.20
2022-09-22T18:09:28.198Z,2.97
2022-09-22T18:11:55.606Z,3.13
2022-09-22T18:14:22.848Z,2.87
2022-09-22T18:17:08.864Z,3.57
2022-09-22T18:22:43.702Z,2.93
2022-09-22T18:25:10.978Z,2.43
2022-09-22T18:27:38.305Z,3.10
2022-09-22T18:30:05.898Z,2.70
2022-09-22T18:32:33.155Z,3.20
2022-09-22T18:35:01.782Z,2.60
2022-09-22T18:37:34.403Z,2.93
2022-09-22T18:40:01.807Z,2.93
2022-09-22T18:42:28.992Z,2.90
2022-09-22T18:44:56.258Z,3.60
2022-09-22T18:47:35.920Z,3.63
2022-09-22T18:50:24.964Z,3.70
2022-09-22T18:52:53.610Z,3.83
2022-09-22T18:55:20.774Z,3.00
2022-09-22T18:57:48.010Z,2.80
2022-09-22T19:00:15.884Z,3.00
2022-09-22T19:02:43.176Z,3.00
2022-09-22T19:05:10.518Z,2.67
2022-09-22T19:07:41.411Z,3.33
2022-09-22T19:10:12.618Z,3.37
2022-09-22T19:12:39.905Z,3.23
2022-09-22T19:15:08.730Z,3.23
2022-09-22T19:21:23.723Z,3.70
2022-09-22T19:23:51.076Z,3.00
2022-09-22T19:26:19.750Z,3.53
2022-09-22T19:28:47.011Z,3.00
2022-09-22T19:31:14.333Z,2.53
2022-09-22T19:33:41.843Z,2.90
2022-09-22T19:36:14.467Z,3.53
2022-09-22T19:38:41.782Z,3.23
2022-09-22T19:41:08.989Z,3.40
2022-09-22T19:43:37.587Z,3.00
2022-09-22T19:49:52.066Z,4.13
2022-09-22T19:52:19.343Z,4.80
2022-09-22T19:54:46.596Z,4.50
2022-09-22T19:57:13.811Z,4.17
2022-09-22T19:59:42.337Z,3.90
2022-09-22T20:02:11.975Z,4.30
2022-09-22T20:07:41.806Z,4.30
2022-09-22T20:10:09.387Z,5.07
2022-09-22T20:12:36.583Z,4.50
2022-09-22T20:15:17.919Z,4.03
2022-09-22T20:18:10.091Z,2.83
2022-09-22T20:20:42.660Z,3.20
2022-09-22T20:23:09.880Z,3.20
2022-09-22T20:25:37.127Z,3.10
2022-09-22T20:28:06.680Z,3.60
2022-09-22T20:30:35.651Z,3.93
2022-09-22T20:33:03.002Z,3.27
2022-09-22T20:35:35.446Z,3.07
2022-09-22T20:38:02.707Z,3.60
2022-09-22T20:40:30.178Z,3.30
2022-09-22T20:42:57.680Z,3.20
2022-09-22T20:45:38.693Z,3.13
2022-09-22T20:51:40.755Z,2.67
2022-09-22T21:00:00.166Z,2.73
2022-09-22T21:02:29.154Z,3.10
2022-09-22T21:07:47.671Z,3.90
2022-09-22T21:10:14.938Z,3.43
2022-09-22T21:12:42.179Z,2.70
2022-09-22T21:15:31.856Z,2.97
2022-09-22T21:18:24.199Z,4.03
2022-09-22T21:20:52.903Z,3.80
2022-09-22T21:23:20.284Z,3.43
2022-09-22T21:25:55.827Z,4.10
2022-09-22T21:28:23.269Z,3.23
2022-09-22T21:30:55.033Z,3.57
2022-09-22T21:33:22.448Z,3.43
2022-09-22T21:35:59.728Z,3.70
2022-09-22T21:38:28.651Z,3.73
2022-09-22T21:40:59.770Z,3.57
2022-09-22T21:43:27.230Z,4.30
2022-09-22T21:46:01.454Z,3.50
2022-09-22T21:48:41.587Z,3.90
2022-09-22T21:51:09.996Z,3.80
2022-09-22T21:53:39.172Z,4.57
2022-09-22T21:56:07.086Z,3.90
2022-09-22T22:01:29.748Z,4.03
2022-09-22T22:04:15.070Z,4.27
2022-09-22T22:06:43.239Z,4.40
2022-09-22T22:09:15.675Z,4.77
2022-09-22T22:11:46.888Z,4.17
2022-09-22T22:14:14.739Z,4.23
2022-09-22T22:16:42.924Z,3.70
2022-09-22T22:19:11.142Z,3.80
2022-09-22T22:21:38.855Z,4.10
2022-09-22T22:24:06.366Z,4.07
2022-09-22T22:26:34.912Z,3.37
2022-09-22T22:29:02.096Z,3.77
2022-09-22T22:31:29.351Z,3.80
2022-09-22T22:33:56.598Z,3.57
2022-09-22T22:36:24.030Z,3.93
2022-09-22T22:38:52.990Z,3.37
2022-09-22T22:41:20.231Z,3.47
2022-09-22T22:43:48.758Z,3.40
2022-09-22T22:46:15.984Z,3.57
2022-09-22T22:48:43.587Z,3.80
2022-09-22T22:51:11.754Z,3.30
2022-09-22T22:53:39.238Z,3.37
2022-09-22T22:56:07.450Z,4.23
2022-09-22T22:58:35.716Z,3.23
2022-09-22T23:01:05.296Z,3.50
2022-09-22T23:03:32.687Z,3.20
2022-09-22T23:06:01.561Z,3.20
2022-09-22T23:08:29.159Z,2.97
2022-09-22T23:11:00.257Z,3.20
2022-09-22T23:13:27.476Z,3.50
2022-09-22T23:16:01.076Z,3.10
2022-09-22T23:18:29.671Z,3.10
2022-09-22T23:20:57.069Z,2.93
2022-09-22T23:23:24.301Z,2.87
2022-09-22T23:25:51.534Z,3.90
2022-09-22T23:28:18.744Z,3.13
2022-09-22T23:30:46.184Z,2.77
2022-09-22T23:33:23.001Z,2.80
2022-09-22T23:35:55.192Z,3.80
2022-09-22T23:38:22.531Z,3.00
2022-09-22T23:40:49.804Z,3.20
2022-09-22T23:43:29.935Z,3.23
2022-09-22T23:46:16.671Z,3.30
2022-09-22T23:48:49.313Z,3.70
2022-09-22T23:51:18.068Z,3.07
2022-09-22T23:53:45.276Z,3.20
2022-09-22T23:56:12.656Z,3.70
2022-09-22T23:58:39.964Z,3.13
